Terminal Aerodrome Forecast
Issued by NWS

Home | Current Version | Previous Version | Text Only | Print | Product List | Glossary On
Versions: 1 2 3 4 5 6 7 8 9 10 11 12
629
FTUS45 KREV 191720
TAFMMH
TAF
KMMH 191720Z 1918/2018 VRB04KT P6SM SCT200
     FM191900 13008KT P6SM BKN200
     FM200100 26006KT P6SM BKN200=

USA.gov is the U.S. government's official web portal to all federal, state and local government web resources and services.